Flight Track Log - Related Links

Times and Time Zones

All times are in EDT time to prevent confusion due to time zone crossing. See the WJA1211 flight status page for this flight to view local times or setup timezone preferences in your user account.

Time Position Orientation Groundspeed Altitude Reporting Facility
EDT Latitude Longitude Course Direction KTS MPH feet Rate Location/Type
Sun 06:12:22 PM 40.8000 -73.8667 358° North 148 170 1,000  Level New York TRACON
Sun 06:14:48 PM 40.9125 -73.8711 358° North 201 231 7,600 2,738 Climbing New York Center
Sun 06:15:48 PM 40.9444 -73.9247 308° West 206 237 10,400 2,380 Climbing New York Center
Sun 06:16:49 PM 41.0117 -73.9883 324° Northwest 249 287 12,400 2,186 Climbing New York Center
Sun 06:17:46 PM 41.0725 -74.0464 324° Northwest 291 335 14,700 1,831 Climbing New York Center
Sun 06:18:47 PM 41.1517 -74.1192 325° Northwest 302 348 16,000 639 Climbing New York Center
Sun 06:19:48 PM 41.2144 -74.1772 325° Northwest 302 348 16,000  Level New York Center
Sun 06:20:46 PM 41.2917 -74.2503 325° Northwest 308 354 16,000 50 Level New York Center
Sun 06:21:47 PM 41.3564 -74.3089 326° Northwest 308 354 16,100 1,230 Climbing New York Center
Sun 06:22:48 PM 41.4244 -74.3983 315° West 308 354 18,500 2,331 Climbing New York Center
Sun 06:23:48 PM 41.4672 -74.4947 301° West 320 368 20,800 2,529 Climbing New York Center
Sun 06:24:49 PM 41.5117 -74.6053 298° West 332 382 23,600 2,695 Climbing New York Center
Sun 06:25:46 PM 41.5642 -74.7192 302° West 350 403 26,100 2,672 Climbing New York Center
Sun 06:26:48 PM 41.6122 -74.8356 299° West 355 409 28,900 1,918 Climbing New York Center
Sun 06:27:48 PM 41.6625 -74.9497 301° West 355 409 30,000 545 Climbing New York Center
Sun 06:28:49 PM 41.7103 -75.0694 298° West 355 409 30,000  Level New York Center
Sun 06:29:46 PM 41.7622 -75.1867 301° West 360 414 30,000  Level New York Center
Sun 06:30:46 PM 41.8097 -75.3014 299° West 360 414 30,000  Level New York Center
Sun 06:31:48 PM 41.8594 -75.4161 300° West 360 414 30,000  Level New York Center
Sun 06:32:46 PM 41.9069 -75.5336 299° West 360 414 30,000  Level New York Center
Sun 06:34:35 PM 41.9958 -75.7489 299° West 362 417 30,000  Level Cleveland Center
Sun 06:35:35 PM 42.0425 -75.8683 298° West 362 417 30,000  Level Cleveland Center
Sun 06:36:35 PM 42.0908 -75.9797 300° West 357 411 30,000  Level Cleveland Center
Sun 06:37:35 PM 42.1372 -76.0967 298° West 357 411 30,000  Level Cleveland Center
Sun 06:38:35 PM 42.1792 -76.2086 297° West 357 411 30,000  Level Cleveland Center
Sun 06:39:35 PM 42.2214 -76.3347 294° West 357 411 30,000  Level Cleveland Center
Sun 06:40:35 PM 42.2592 -76.4558 293° West 357 411 30,000  Level Cleveland Center
Sun 06:41:35 PM 42.2967 -76.5769 293° West 352 405 30,000  Level Cleveland Center
Sun 06:42:35 PM 42.3364 -76.6981 294° West 352 405 30,000  Level Cleveland Center
Sun 06:43:35 PM 42.3758 -76.8222 293° West 352 405 30,000  Level Cleveland Center
Sun 06:44:31 PM 42.4000 -76.9167 289° West 360 414 30,000  Level Toronto Center
Sun 06:45:31 PM 42.4500 -77.0500 297° West 370 426 30,000  Level Toronto Center
Sun 06:46:31 PM 42.4833 -77.1667 291° West 370 426 30,000  Level Toronto Center
Sun 06:47:31 PM 42.5167 -77.3000 289° West 370 426 30,000  Level Toronto Center
Sun 06:48:35 PM 42.5742 -77.4589 296° West 370 426 30,000  Level Cleveland Center
Sun 06:49:35 PM 42.6131 -77.5869 292° West 370 426 30,000  Level Cleveland Center
Sun 06:50:35 PM 42.6517 -77.7150 292° West 370 426 30,000  Level Cleveland Center
Sun 06:51:35 PM 42.6947 -77.8542 293° West 370 426 30,000 -250 Level Cleveland Center
Sun 06:52:35 PM 42.7333 -77.9856 292° West 365 420 29,500 -750 Descending Cleveland Center
Sun 06:53:35 PM 42.7736 -78.1167 293° West 365 420 28,500 -1,000 Descending Cleveland Center
Sun 06:54:35 PM 42.8117 -78.2483 292° West 371 427 27,500 -1,000 Descending Cleveland Center
Sun 06:55:35 PM 42.8497 -78.3772 292° West 371 427 26,500 -1,150 Descending Cleveland Center
Sun 06:56:35 PM 42.8875 -78.5033 292° West 364 419 25,200 -1,200 Descending Cleveland Center
Sun 06:57:35 PM 42.9208 -78.6156 292° West 347 399 24,100 -1,050 Descending Cleveland Center
Sun 06:58:35 PM 42.9661 -78.7136 302° West 322 371 23,100 -1,000 Descending Cleveland Center
Sun 06:59:35 PM 43.0133 -78.8031 306° West 306 352 22,100 -1,193 Descending Cleveland Center
Sun 07:01:31 PM 43.1000 -78.9500 309° West 290 334 19,600 -1,432 Descending Toronto Center
Sun 07:02:31 PM 43.1500 -79.0333 309° West 280 322 17,900 -1,550 Descending Toronto Center
Sun 07:03:31 PM 43.1833 -79.1333 295° West 270 311 16,500 -1,500 Descending Toronto Center
Sun 07:04:31 PM 43.2333 -79.2000 316° Northwest 260 299 14,900 -1,500 Descending Toronto Center
Sun 07:05:31 PM 43.2667 -79.2833 299° West 250 288 13,500 -1,350 Descending Toronto Center
Sun 07:06:31 PM 43.3167 -79.3333 324° Northwest 240 276 12,200 -750 Descending Toronto Center
Sun 07:07:31 PM 43.3667 -79.3500 346° North 230 265 12,000 -150 Descending Toronto Center
Sun 07:08:31 PM 43.4333 -79.4000 331° Northwest 220 253 11,900 -500 Descending Toronto Center
Sun 07:09:31 PM 43.5000 -79.4000 360° North 230 265 11,000 -1,150 Descending Toronto Center
Sun 07:10:31 PM 43.5500 -79.4000 360° North 230 265 9,600 -1,300 Descending Toronto Center
Sun 07:11:31 PM 43.5833 -79.4667 305° West 220 253 8,400 -1,200 Descending Toronto Center
Sun 07:12:31 PM 43.5667 -79.5333 251° West 210 242 7,200 -1,250 Descending Toronto Center
Sun 07:13:31 PM 43.5333 -79.6167 241° Southwest 220 253 5,900 -1,300 Descending Toronto Center
Sun 07:14:31 PM 43.4833 -79.6833 224° Southwest 230 265 4,600 -1,150 Descending Toronto Center
Sun 07:15:31 PM 43.4667 -79.7500 251° West 220 253 3,600 -800 Descending Toronto Center
Sun 07:16:31 PM 43.5000 -79.8000 313° West 200 230 3,000 -300 Descending Toronto Center
Sun 07:17:31 PM 43.5500 -79.7500 36° Northeast 180 207 3,000 -200 Level Toronto Center
Sun 07:18:31 PM 43.5833 -79.7000 47° Northeast 180 207 2,600 -700 Descending Toronto Center
Sun 07:19:31 PM 43.6167 -79.6500 47° Northeast 170 196 1,600 -850 Descending Toronto Center
Sun 07:20:31 PM 43.6333 -79.6167 55° Northeast 140 161 900 -700 Descending Toronto Center

Login

Don't have an account? Register now (free) for customized features, flight alerts, and more!